sensor_id;sensor_type;location;lat;lon;timestamp;pressure;altitude;pressure_sealevel;temperature;humidity
59873;BME280;50750;51.636;4.948;2023-03-19T00:02:11;101196.59;;;15.12;64.99
59873;BME280;50750;51.636;4.948;2023-03-19T00:04:38;101203.15;;;15.12;64.99
59873;BME280;50750;51.636;4.948;2023-03-19T00:07:05;101201.80;;;15.11;64.99
59873;BME280;50750;51.636;4.948;2023-03-19T00:09:32;101208.52;;;15.10;65.05
59873;BME280;50750;51.636;4.948;2023-03-19T00:11:58;101212.40;;;15.10;65.04
59873;BME280;50750;51.636;4.948;2023-03-19T00:14:25;101215.41;;;15.09;65.18
59873;BME280;50750;51.636;4.948;2023-03-19T00:16:52;101219.64;;;15.10;65.18
59873;BME280;50750;51.636;4.948;2023-03-19T00:19:18;101220.84;;;15.10;64.84
59873;BME280;50750;51.636;4.948;2023-03-19T00:21:45;101222.96;;;15.10;65.03
59873;BME280;50750;51.636;4.948;2023-03-19T00:24:12;101222.42;;;15.11;64.94
59873;BME280;50750;51.636;4.948;2023-03-19T00:26:39;101221.19;;;15.11;65.12
59873;BME280;50750;51.636;4.948;2023-03-19T00:29:06;101223.81;;;15.11;65.09
59873;BME280;50750;51.636;4.948;2023-03-19T00:31:33;101222.77;;;15.11;65.02
59873;BME280;50750;51.636;4.948;2023-03-19T00:34:01;101215.73;;;15.10;64.95
59873;BME280;50750;51.636;4.948;2023-03-19T00:36:29;101214.33;;;15.10;65.07
59873;BME280;50750;51.636;4.948;2023-03-19T00:38:56;101215.05;;;15.09;64.93
59873;BME280;50750;51.636;4.948;2023-03-19T00:41:23;101212.45;;;15.09;64.98
59873;BME280;50750;51.636;4.948;2023-03-19T00:43:54;101210.71;;;15.08;64.92
59873;BME280;50750;51.636;4.948;2023-03-19T00:46:22;101205.25;;;15.08;65.07
59873;BME280;50750;51.636;4.948;2023-03-19T00:48:49;101208.44;;;15.08;65.08
59873;BME280;50750;51.636;4.948;2023-03-19T00:51:19;101208.41;;;15.08;65.03
59873;BME280;50750;51.636;4.948;2023-03-19T00:53:45;101205.94;;;15.08;64.98
59873;BME280;50750;51.636;4.948;2023-03-19T00:56:14;101213.64;;;15.09;65.10
59873;BME280;50750;51.636;4.948;2023-03-19T00:58:40;101209.41;;;15.09;64.96
59873;BME280;50750;51.636;4.948;2023-03-19T01:01:08;101214.20;;;15.09;64.94
59873;BME280;50750;51.636;4.948;2023-03-19T01:03:36;101220.53;;;15.09;65.07
59873;BME280;50750;51.636;4.948;2023-03-19T01:06:03;101223.71;;;15.09;65.07
59873;BME280;50750;51.636;4.948;2023-03-19T01:08:30;101226.35;;;15.09;65.10
59873;BME280;50750;51.636;4.948;2023-03-19T01:11:04;101229.73;;;15.09;64.94
59873;BME280;50750;51.636;4.948;2023-03-19T01:13:31;101225.02;;;15.08;65.08
59873;BME280;50750;51.636;4.948;2023-03-19T01:15:58;101228.39;;;15.07;65.10
59873;BME280;50750;51.636;4.948;2023-03-19T01:18:25;101229.13;;;15.07;65.04
59873;BME280;50750;51.636;4.948;2023-03-19T01:20:52;101231.27;;;15.06;65.22
59873;BME280;50750;51.636;4.948;2023-03-19T01:23:18;101230.19;;;15.06;65.11
59873;BME280;50750;51.636;4.948;2023-03-19T01:25:45;101219.96;;;15.06;65.06
59873;BME280;50750;51.636;4.948;2023-03-19T01:28:13;101223.13;;;15.07;65.09
59873;BME280;50750;51.636;4.948;2023-03-19T01:30:39;101224.67;;;15.07;65.10
59873;BME280;50750;51.636;4.948;2023-03-19T01:33:06;101219.77;;;15.07;65.23
59873;BME280;50750;51.636;4.948;2023-03-19T01:35:33;101222.58;;;15.07;65.07
59873;BME280;50750;51.636;4.948;2023-03-19T01:37:59;101221.85;;;15.08;65.14
59873;BME280;50750;51.636;4.948;2023-03-19T01:40:26;101225.73;;;15.07;65.22
59873;BME280;50750;51.636;4.948;2023-03-19T01:45:43;101230.19;;;15.06;64.99
59873;BME280;50750;51.636;4.948;2023-03-19T01:48:21;101232.86;;;15.06;65.00
59873;BME280;50750;51.636;4.948;2023-03-19T01:50:51;101227.63;;;15.05;65.17
59873;BME280;50750;51.636;4.948;2023-03-19T01:53:26;101232.05;;;15.04;65.18
59873;BME280;50750;51.636;4.948;2023-03-19T01:56:00;101234.89;;;15.03;65.12
59873;BME280;50750;51.636;4.948;2023-03-19T01:58:29;101234.55;;;15.03;65.16
59873;BME280;50750;51.636;4.948;2023-03-19T02:00:56;101233.30;;;15.04;65.19
59873;BME280;50750;51.636;4.948;2023-03-19T02:03:24;101233.98;;;15.04;65.12
59873;BME280;50750;51.636;4.948;2023-03-19T02:05:52;101231.50;;;15.05;64.99
59873;BME280;50750;51.636;4.948;2023-03-19T02:08:20;101232.02;;;15.05;65.00
59873;BME280;50750;51.636;4.948;2023-03-19T02:10:49;101235.36;;;15.05;65.05
59873;BME280;50750;51.636;4.948;2023-03-19T02:13:16;101238.19;;;15.05;64.93
59873;BME280;50750;51.636;4.948;2023-03-19T02:15:43;101241.54;;;15.05;65.24
59873;BME280;50750;51.636;4.948;2023-03-19T02:18:10;101241.70;;;15.05;65.00
59873;BME280;50750;51.636;4.948;2023-03-19T02:20:45;101235.91;;;15.05;65.04
59873;BME280;50750;51.636;4.948;2023-03-19T02:26:11;101236.67;;;15.03;65.10
59873;BME280;50750;51.636;4.948;2023-03-19T02:28:41;101239.71;;;15.02;65.18
59873;BME280;50750;51.636;4.948;2023-03-19T02:31:10;101243.79;;;15.02;65.06
59873;BME280;50750;51.636;4.948;2023-03-19T02:33:37;101245.76;;;15.01;65.13
59873;BME280;50750;51.636;4.948;2023-03-19T02:36:07;101247.13;;;15.02;65.28
59873;BME280;50750;51.636;4.948;2023-03-19T02:38:35;101246.77;;;15.02;65.09
59873;BME280;50750;51.636;4.948;2023-03-19T02:41:04;101249.05;;;15.02;65.23
59873;BME280;50750;51.636;4.948;2023-03-19T02:43:33;101249.92;;;15.03;65.07
59873;BME280;50750;51.636;4.948;2023-03-19T02:46:01;101249.05;;;15.02;65.11
59873;BME280;50750;51.636;4.948;2023-03-19T02:48:28;101250.45;;;15.03;65.17
59873;BME280;50750;51.636;4.948;2023-03-19T02:50:55;101249.58;;;15.02;65.15
59873;BME280;50750;51.636;4.948;2023-03-19T02:53:22;101249.57;;;15.02;65.19
59873;BME280;50750;51.636;4.948;2023-03-19T02:55:49;101245.37;;;15.02;65.08
59873;BME280;50750;51.636;4.948;2023-03-19T02:58:16;101248.04;;;15.01;65.15
59873;BME280;50750;51.636;4.948;2023-03-19T03:00:43;101249.64;;;15.01;65.06
59873;BME280;50750;51.636;4.948;2023-03-19T03:03:10;101246.86;;;15.00;65.02
59873;BME280;50750;51.636;4.948;2023-03-19T03:05:37;101251.65;;;14.99;65.04
59873;BME280;50750;51.636;4.948;2023-03-19T03:08:04;101246.71;;;14.99;65.13
59873;BME280;50750;51.636;4.948;2023-03-19T03:10:32;101247.93;;;15.00;65.11
59873;BME280;50750;51.636;4.948;2023-03-19T03:12:59;101253.21;;;15.00;65.16
59873;BME280;50750;51.636;4.948;2023-03-19T03:15:26;101254.42;;;15.00;65.06
59873;BME280;50750;51.636;4.948;2023-03-19T03:17:53;101252.47;;;15.00;64.90
59873;BME280;50750;51.636;4.948;2023-03-19T03:20:22;101247.37;;;15.00;65.08
59873;BME280;50750;51.636;4.948;2023-03-19T03:22:48;101246.63;;;15.01;65.08
59873;BME280;50750;51.636;4.948;2023-03-19T03:25:15;101247.36;;;15.00;64.92
59873;BME280;50750;51.636;4.948;2023-03-19T03:27:42;101249.85;;;15.00;64.96
59873;BME280;50750;51.636;4.948;2023-03-19T03:30:10;101251.47;;;14.99;65.04
59873;BME280;50750;51.636;4.948;2023-03-19T03:32:38;101256.60;;;14.99;65.09
59873;BME280;50750;51.636;4.948;2023-03-19T03:35:06;101260.17;;;14.98;65.13
59873;BME280;50750;51.636;4.948;2023-03-19T03:37:34;101257.24;;;14.97;65.07
59873;BME280;50750;51.636;4.948;2023-03-19T03:40:03;101260.06;;;14.97;65.04
59873;BME280;50750;51.636;4.948;2023-03-19T03:42:34;101258.15;;;14.96;65.07
59873;BME280;50750;51.636;4.948;2023-03-19T03:45:03;101260.40;;;14.97;64.96
59873;BME280;50750;51.636;4.948;2023-03-19T03:47:30;101266.38;;;14.97;65.07
59873;BME280;50750;51.636;4.948;2023-03-19T03:49:57;101266.91;;;14.97;65.03
59873;BME280;50750;51.636;4.948;2023-03-19T03:52:24;101261.96;;;14.97;64.99
59873;BME280;50750;51.636;4.948;2023-03-19T03:54:50;101259.48;;;14.97;65.12
59873;BME280;50750;51.636;4.948;2023-03-19T03:57:17;101255.78;;;14.98;64.93
59873;BME280;50750;51.636;4.948;2023-03-19T03:59:43;101256.13;;;14.98;64.92
59873;BME280;50750;51.636;4.948;2023-03-19T04:02:10;101254.60;;;14.96;64.95
59873;BME280;50750;51.636;4.948;2023-03-19T04:04:37;101254.95;;;14.96;64.99
59873;BME280;50750;51.636;4.948;2023-03-19T04:07:03;101259.20;;;14.95;64.83
59873;BME280;50750;51.636;4.948;2023-03-19T04:09:30;101261.21;;;14.95;64.98
59873;BME280;50750;51.636;4.948;2023-03-19T04:11:56;101264.39;;;14.94;64.92
59873;BME280;50750;51.636;4.948;2023-03-19T04:14:23;101266.19;;;14.93;64.83
59873;BME280;50750;51.636;4.948;2023-03-19T04:16:49;101266.77;;;14.92;64.81
59873;BME280;50750;51.636;4.948;2023-03-19T04:19:16;101263.42;;;14.92;65.07
59873;BME280;50750;51.636;4.948;2023-03-19T04:21:43;101264.98;;;14.93;65.04
59873;BME280;50750;51.636;4.948;2023-03-19T04:24:10;101266.58;;;14.92;64.91
59873;BME280;50750;51.636;4.948;2023-03-19T04:26:37;101266.39;;;14.92;65.04
59873;BME280;50750;51.636;4.948;2023-03-19T04:29:04;101265.51;;;14.93;64.92
59873;BME280;50750;51.636;4.948;2023-03-19T04:31:31;101263.56;;;14.93;64.78
59873;BME280;50750;51.636;4.948;2023-03-19T04:33:58;101265.67;;;14.93;64.88
59873;BME280;50750;51.636;4.948;2023-03-19T04:36:25;101264.47;;;14.92;64.84
59873;BME280;50750;51.636;4.948;2023-03-19T04:38:52;101264.84;;;14.92;64.70
59873;BME280;50750;51.636;4.948;2023-03-19T04:41:18;101269.61;;;14.92;64.77
59873;BME280;50750;51.636;4.948;2023-03-19T04:43:45;101276.53;;;14.91;64.77
59873;BME280;50750;51.636;4.948;2023-03-19T04:46:12;101275.83;;;14.90;64.81
59873;BME280;50750;51.636;4.948;2023-03-19T04:48:38;101277.98;;;14.90;64.72
59873;BME280;50750;51.636;4.948;2023-03-19T04:51:05;101274.33;;;14.88;64.85
59873;BME280;50750;51.636;4.948;2023-03-19T04:53:35;101271.88;;;14.88;64.93
59873;BME280;50750;51.636;4.948;2023-03-19T04:56:03;101278.05;;;14.88;64.75
59873;BME280;50750;51.636;4.948;2023-03-19T04:58:30;101278.20;;;14.89;64.72
59873;BME280;50750;51.636;4.948;2023-03-19T05:00:56;101280.84;;;14.88;64.62
59873;BME280;50750;51.636;4.948;2023-03-19T05:03:23;101282.42;;;14.88;64.80
59873;BME280;50750;51.636;4.948;2023-03-19T05:05:52;101282.77;;;14.89;64.78
59873;BME280;50750;51.636;4.948;2023-03-19T05:08:19;101284.90;;;14.89;64.68
59873;BME280;50750;51.636;4.948;2023-03-19T05:10:45;101290.52;;;14.89;64.72
59873;BME280;50750;51.636;4.948;2023-03-19T05:13:12;101291.60;;;14.88;64.74
59873;BME280;50750;51.636;4.948;2023-03-19T05:15:42;101296.02;;;14.88;64.66
59873;BME280;50750;51.636;4.948;2023-03-19T05:18:09;101292.16;;;14.88;64.70
59873;BME280;50750;51.636;4.948;2023-03-19T05:20:37;101289.90;;;14.87;64.62
59873;BME280;50750;51.636;4.948;2023-03-19T05:23:04;101294.36;;;14.86;64.76
59873;BME280;50750;51.636;4.948;2023-03-19T05:25:33;101302.83;;;14.86;64.62
59873;BME280;50750;51.636;4.948;2023-03-19T05:28:01;101297.05;;;14.84;64.80
59873;BME280;50750;51.636;4.948;2023-03-19T05:30:29;101299.74;;;14.84;64.76
59873;BME280;50750;51.636;4.948;2023-03-19T05:32:56;101302.55;;;14.84;64.65
59873;BME280;50750;51.636;4.948;2023-03-19T05:35:25;101302.56;;;14.84;64.81
59873;BME280;50750;51.636;4.948;2023-03-19T05:37:52;101308.35;;;14.84;64.82
59873;BME280;50750;51.636;4.948;2023-03-19T05:40:20;101310.27;;;14.85;64.80
59873;BME280;50750;51.636;4.948;2023-03-19T05:42:47;101312.02;;;14.85;64.65
59873;BME280;50750;51.636;4.948;2023-03-19T05:45:14;101309.41;;;14.84;64.65
59873;BME280;50750;51.636;4.948;2023-03-19T05:47:43;101312.92;;;14.84;64.78
59873;BME280;50750;51.636;4.948;2023-03-19T05:50:10;101316.30;;;14.84;64.55
59873;BME280;50750;51.636;4.948;2023-03-19T05:52:37;101322.49;;;14.84;64.60
59873;BME280;50750;51.636;4.948;2023-03-19T05:55:04;101327.97;;;14.83;64.81
59873;BME280;50750;51.636;4.948;2023-03-19T05:57:32;101327.45;;;14.83;64.56
59873;BME280;50750;51.636;4.948;2023-03-19T05:59:58;101324.85;;;14.82;64.67
59873;BME280;50750;51.636;4.948;2023-03-19T06:02:25;101332.11;;;14.81;64.71
59873;BME280;50750;51.636;4.948;2023-03-19T06:04:52;101336.55;;;14.80;64.69
59873;BME280;50750;51.636;4.948;2023-03-19T06:07:19;101338.49;;;14.80;64.61
59873;BME280;50750;51.636;4.948;2023-03-19T06:09:46;101344.17;;;14.79;64.65
59873;BME280;50750;51.636;4.948;2023-03-19T06:12:12;101349.29;;;14.79;64.69
59873;BME280;50750;51.636;4.948;2023-03-19T06:14:39;101347.52;;;14.79;64.64
59873;BME280;50750;51.636;4.948;2023-03-19T06:17:05;101350.48;;;14.79;64.63
59873;BME280;50750;51.636;4.948;2023-03-19T06:19:32;101352.80;;;14.79;64.67
59873;BME280;50750;51.636;4.948;2023-03-19T06:21:59;101358.75;;;14.80;64.71
59873;BME280;50750;51.636;4.948;2023-03-19T06:24:26;101365.10;;;14.80;64.70
59873;BME280;50750;51.636;4.948;2023-03-19T06:26:55;101368.47;;;14.79;64.50
59873;BME280;50750;51.636;4.948;2023-03-19T06:29:22;101369.70;;;14.79;64.54
59873;BME280;50750;51.636;4.948;2023-03-19T06:31:48;101373.42;;;14.79;64.56
59873;BME280;50750;51.636;4.948;2023-03-19T06:34:15;101375.55;;;14.79;64.43
59873;BME280;50750;51.636;4.948;2023-03-19T06:36:41;101371.90;;;14.78;64.65
59873;BME280;50750;51.636;4.948;2023-03-19T06:39:08;101377.71;;;14.78;64.68
59873;BME280;50750;51.636;4.948;2023-03-19T06:41:35;101378.98;;;14.77;64.73
59873;BME280;50750;51.636;4.948;2023-03-19T06:44:03;101378.86;;;14.76;64.64
59873;BME280;50750;51.636;4.948;2023-03-19T06:46:30;101377.82;;;14.75;64.57
59873;BME280;50750;51.636;4.948;2023-03-19T06:48:56;101375.89;;;14.75;64.69
59873;BME280;50750;51.636;4.948;2023-03-19T06:51:23;101375.67;;;14.76;64.63
59873;BME280;50750;51.636;4.948;2023-03-19T06:53:53;101380.77;;;14.76;64.57
59873;BME280;50750;51.636;4.948;2023-03-19T06:56:20;101386.05;;;14.76;64.65
59873;BME280;50750;51.636;4.948;2023-03-19T06:58:46;101392.73;;;14.76;64.41
59873;BME280;50750;51.636;4.948;2023-03-19T07:01:13;101387.66;;;14.76;64.64
59873;BME280;50750;51.636;4.948;2023-03-19T07:03:39;101391.02;;;14.76;64.60
59873;BME280;50750;51.636;4.948;2023-03-19T07:06:06;101391.37;;;14.76;64.60
59873;BME280;50750;51.636;4.948;2023-03-19T07:08:34;101394.03;;;14.76;64.66
59873;BME280;50750;51.636;4.948;2023-03-19T07:11:05;101398.10;;;14.75;64.43
59873;BME280;50750;51.636;4.948;2023-03-19T07:13:33;101407.62;;;14.75;64.63
59873;BME280;50750;51.636;4.948;2023-03-19T07:16:00;101409.08;;;14.74;64.65
59873;BME280;50750;51.636;4.948;2023-03-19T07:18:26;101410.13;;;14.74;64.67
59873;BME280;50750;51.636;4.948;2023-03-19T07:20:53;101407.02;;;14.72;64.67
59873;BME280;50750;51.636;4.948;2023-03-19T07:23:20;101409.48;;;14.72;64.65
59873;BME280;50750;51.636;4.948;2023-03-19T07:25:46;101418.11;;;14.73;64.76
59873;BME280;50750;51.636;4.948;2023-03-19T07:28:13;101422.48;;;14.74;64.58
59873;BME280;50750;51.636;4.948;2023-03-19T07:30:40;101423.68;;;14.75;64.75
59873;BME280;50750;51.636;4.948;2023-03-19T07:33:07;101424.55;;;14.75;64.47
59873;BME280;50750;51.636;4.948;2023-03-19T07:35:34;101424.17;;;14.75;64.56
59873;BME280;50750;51.636;4.948;2023-03-19T07:38:01;101434.89;;;14.76;64.53
59873;BME280;50750;51.636;4.948;2023-03-19T07:40:28;101439.15;;;14.76;64.62
59873;BME280;50750;51.636;4.948;2023-03-19T07:42:55;101437.20;;;14.76;64.41
59873;BME280;50750;51.636;4.948;2023-03-19T07:45:22;101439.50;;;14.76;64.29
59873;BME280;50750;51.636;4.948;2023-03-19T07:47:49;101443.02;;;14.76;64.57
59873;BME280;50750;51.636;4.948;2023-03-19T07:50:17;101445.18;;;14.75;64.64
59873;BME280;50750;51.636;4.948;2023-03-19T07:52:45;101449.06;;;14.75;64.55
59873;BME280;50750;51.636;4.948;2023-03-19T07:55:13;101453.33;;;14.74;64.53
59873;BME280;50750;51.636;4.948;2023-03-19T07:57:40;101453.51;;;14.74;64.53
59873;BME280;50750;51.636;4.948;2023-03-19T08:00:07;101456.55;;;14.73;64.59
59873;BME280;50750;51.636;4.948;2023-03-19T08:02:34;101459.21;;;14.72;64.48
59873;BME280;50750;51.636;4.948;2023-03-19T08:05:00;101459.58;;;14.71;64.41
59873;BME280;50750;51.636;4.948;2023-03-19T08:07:30;101460.07;;;14.73;64.58
59873;BME280;50750;51.636;4.948;2023-03-19T08:09:57;101462.52;;;14.73;64.62
59873;BME280;50750;51.636;4.948;2023-03-19T08:12:27;101464.98;;;14.73;64.48
59873;BME280;50750;51.636;4.948;2023-03-19T08:14:54;101465.84;;;14.74;64.44
59873;BME280;50750;51.636;4.948;2023-03-19T08:17:20;101470.41;;;14.74;64.56
59873;BME280;50750;51.636;4.948;2023-03-19T08:19:47;101475.36;;;14.74;64.55
59873;BME280;50750;51.636;4.948;2023-03-19T08:22:13;101476.40;;;14.74;64.37
59873;BME280;50750;51.636;4.948;2023-03-19T08:24:41;101478.37;;;14.73;64.34
59873;BME280;50750;51.636;4.948;2023-03-19T08:27:08;101478.73;;;14.73;64.43
59873;BME280;50750;51.636;4.948;2023-03-19T08:29:34;101476.63;;;14.73;64.43
59873;BME280;50750;51.636;4.948;2023-03-19T08:32:01;101481.02;;;14.73;64.40
59873;BME280;50750;51.636;4.948;2023-03-19T08:34:27;101475.95;;;14.72;64.71
59873;BME280;50750;51.636;4.948;2023-03-19T08:36:54;101481.61;;;14.71;64.43
59873;BME280;50750;51.636;4.948;2023-03-19T08:39:21;101481.61;;;14.72;64.44
59873;BME280;50750;51.636;4.948;2023-03-19T08:41:47;101477.52;;;14.73;64.45
59873;BME280;50750;51.636;4.948;2023-03-19T08:44:14;101474.52;;;14.73;64.64
59873;BME280;50750;51.636;4.948;2023-03-19T08:46:41;101476.80;;;14.73;64.57
59873;BME280;50750;51.636;4.948;2023-03-19T08:49:07;101476.42;;;14.73;64.34
59873;BME280;50750;51.636;4.948;2023-03-19T08:51:34;101480.45;;;14.74;64.25
59873;BME280;50750;51.636;4.948;2023-03-19T08:54:01;101481.52;;;14.74;64.61
59873;BME280;50750;51.636;4.948;2023-03-19T08:56:28;101482.91;;;14.74;64.47
59873;BME280;50750;51.636;4.948;2023-03-19T08:58:55;101485.05;;;14.74;64.55
59873;BME280;50750;51.636;4.948;2023-03-19T09:01:22;101487.70;;;14.74;64.66
59873;BME280;50750;51.636;4.948;2023-03-19T09:03:49;101488.27;;;14.73;64.66
59873;BME280;50750;51.636;4.948;2023-03-19T09:06:16;101490.23;;;14.73;64.59
59873;BME280;50750;51.636;4.948;2023-03-19T09:08:42;101490.59;;;14.72;64.56
59873;BME280;50750;51.636;4.948;2023-03-19T09:11:09;101489.71;;;14.72;64.62
59873;BME280;50750;51.636;4.948;2023-03-19T09:13:36;101489.55;;;14.71;64.66
59873;BME280;50750;51.636;4.948;2023-03-19T09:16:03;101491.34;;;14.71;64.62
59873;BME280;50750;51.636;4.948;2023-03-19T09:18:30;101495.17;;;14.72;64.69
59873;BME280;50750;51.636;4.948;2023-03-19T09:20:58;101497.77;;;14.74;64.42
59873;BME280;50750;51.636;4.948;2023-03-19T09:23:25;101498.98;;;14.73;64.60
59873;BME280;50750;51.636;4.948;2023-03-19T09:25:51;101500.90;;;14.75;64.62
59873;BME280;50750;51.636;4.948;2023-03-19T09:28:18;101507.42;;;14.75;64.66
59873;BME280;50750;51.636;4.948;2023-03-19T09:30:46;101510.92;;;14.75;64.63
59873;BME280;50750;51.636;4.948;2023-03-19T09:33:14;101514.07;;;14.76;64.57
59873;BME280;50750;51.636;4.948;2023-03-19T09:35:41;101516.90;;;14.75;64.45
59873;BME280;50750;51.636;4.948;2023-03-19T09:38:08;101523.59;;;14.76;64.60
59873;BME280;50750;51.636;4.948;2023-03-19T09:40:41;101526.42;;;14.76;64.74
59873;BME280;50750;51.636;4.948;2023-03-19T09:46:21;101536.66;;;14.75;64.58
59873;BME280;50750;51.636;4.948;2023-03-19T09:48:57;101536.15;;;14.74;64.63
59873;BME280;50750;51.636;4.948;2023-03-19T09:51:45;101544.09;;;14.74;64.85
59873;BME280;50750;51.636;4.948;2023-03-19T09:54:24;101544.79;;;14.74;64.58
59873;BME280;50750;51.636;4.948;2023-03-19T09:56:53;101546.89;;;14.75;64.77
59873;BME280;50750;51.636;4.948;2023-03-19T09:59:22;101551.11;;;14.75;64.66
59873;BME280;50750;51.636;4.948;2023-03-19T10:04:56;101558.96;;;14.77;64.50
59873;BME280;50750;51.636;4.948;2023-03-19T10:13:16;101567.05;;;14.78;64.69
59873;BME280;50750;51.636;4.948;2023-03-19T10:15:49;101568.98;;;14.78;64.51
59873;BME280;50750;51.636;4.948;2023-03-19T10:18:18;101568.81;;;14.78;64.61
59873;BME280;50750;51.636;4.948;2023-03-19T10:21:03;101572.70;;;14.77;64.54
59873;BME280;50750;51.636;4.948;2023-03-19T10:23:52;101574.12;;;14.77;64.61
59873;BME280;50750;51.636;4.948;2023-03-19T10:26:27;101575.20;;;14.77;64.66
59873;BME280;50750;51.636;4.948;2023-03-19T10:29:18;101575.77;;;14.76;64.73
59873;BME280;50750;51.636;4.948;2023-03-19T10:31:51;101580.35;;;14.76;64.61
59873;BME280;50750;51.636;4.948;2023-03-19T10:34:34;101587.17;;;14.77;64.74
59873;BME280;50750;51.636;4.948;2023-03-19T10:37:18;101588.73;;;14.77;64.80
59873;BME280;50750;51.636;4.948;2023-03-19T10:39:50;101589.23;;;14.79;64.69
59873;BME280;50750;51.636;4.948;2023-03-19T10:42:42;101588.86;;;14.79;64.56
59873;BME280;50750;51.636;4.948;2023-03-19T10:45:30;101590.08;;;14.80;64.60
59873;BME280;50750;51.636;4.948;2023-03-19T10:48:00;101589.75;;;14.79;64.60
59873;BME280;50750;51.636;4.948;2023-03-19T10:50:34;101592.56;;;14.79;64.76
59873;BME280;50750;51.636;4.948;2023-03-19T10:56:15;101597.50;;;14.79;64.55
59873;BME280;50750;51.636;4.948;2023-03-19T10:58:59;101602.98;;;14.79;64.66
59873;BME280;50750;51.636;4.948;2023-03-19T11:01:31;101602.84;;;14.78;64.57
59873;BME280;50750;51.636;4.948;2023-03-19T11:04:00;101604.45;;;14.77;64.59
59873;BME280;50750;51.636;4.948;2023-03-19T11:06:35;101608.54;;;14.76;64.57
59873;BME280;50750;51.636;4.948;2023-03-19T11:09:13;101613.11;;;14.76;64.46
59873;BME280;50750;51.636;4.948;2023-03-19T11:11:49;101616.08;;;14.77;64.56
59873;BME280;50750;51.636;4.948;2023-03-19T11:14:25;101612.02;;;14.77;64.65
59873;BME280;50750;51.636;4.948;2023-03-19T11:19:28;101615.33;;;14.78;64.67
59873;BME280;50750;51.636;4.948;2023-03-19T11:24:26;101616.35;;;14.79;64.56
59873;BME280;50750;51.636;4.948;2023-03-19T11:26:54;101614.95;;;14.79;64.58
59873;BME280;50750;51.636;4.948;2023-03-19T11:29:22;101620.05;;;14.80;64.62
59873;BME280;50750;51.636;4.948;2023-03-19T11:31:57;101620.25;;;14.79;64.70
59873;BME280;50750;51.636;4.948;2023-03-19T11:34:48;101619.54;;;14.79;64.68
59873;BME280;50750;51.636;4.948;2023-03-19T11:40:10;101623.09;;;14.78;64.67
59873;BME280;50750;51.636;4.948;2023-03-19T11:45:35;101621.89;;;14.78;64.53
59873;BME280;50750;51.636;4.948;2023-03-19T11:53:27;101626.39;;;14.80;64.59
59873;BME280;50750;51.636;4.948;2023-03-19T11:59:01;101633.90;;;14.82;64.51
59873;BME280;50750;51.636;4.948;2023-03-19T12:04:48;101630.37;;;14.82;64.64
59873;BME280;50750;51.636;4.948;2023-03-19T12:13:27;101637.12;;;14.81;64.56
59873;BME280;50750;51.636;4.948;2023-03-19T12:18:26;101625.87;;;14.80;64.62
59873;BME280;50750;51.636;4.948;2023-03-19T12:24:09;101625.17;;;14.79;64.65
59873;BME280;50750;51.636;4.948;2023-03-19T12:29:42;101621.27;;;14.80;64.79
59873;BME280;50750;51.636;4.948;2023-03-19T12:35:04;101625.11;;;14.82;64.71
59873;BME280;50750;51.636;4.948;2023-03-19T12:37:39;101620.35;;;14.82;64.67
59873;BME280;50750;51.636;4.948;2023-03-19T12:40:34;101620.66;;;14.83;64.56
59873;BME280;50750;51.636;4.948;2023-03-19T12:43:11;101623.14;;;14.83;64.77
59873;BME280;50750;51.636;4.948;2023-03-19T12:46:06;101623.67;;;14.82;64.71
59873;BME280;50750;51.636;4.948;2023-03-19T12:48:39;101627.73;;;14.82;64.46
59873;BME280;50750;51.636;4.948;2023-03-19T12:51:12;101629.31;;;14.82;64.55
59873;BME280;50750;51.636;4.948;2023-03-19T12:53:49;101631.25;;;14.82;64.60
59873;BME280;50750;51.636;4.948;2023-03-19T13:01:48;101628.36;;;14.84;64.68
59873;BME280;50750;51.636;4.948;2023-03-19T13:04:23;101630.27;;;14.85;64.66
59873;BME280;50750;51.636;4.948;2023-03-19T13:07:07;101633.24;;;14.86;64.67
59873;BME280;50750;51.636;4.948;2023-03-19T13:09:43;101637.96;;;14.87;64.58
59873;BME280;50750;51.636;4.948;2023-03-19T13:14:48;101638.82;;;14.88;64.44
59873;BME280;50750;51.636;4.948;2023-03-19T13:17:27;101634.56;;;14.88;64.58
59873;BME280;50750;51.636;4.948;2023-03-19T13:19:57;101634.04;;;14.88;64.41
59873;BME280;50750;51.636;4.948;2023-03-19T13:22:31;101630.86;;;14.88;64.63
59873;BME280;50750;51.636;4.948;2023-03-19T13:25:01;101629.80;;;14.89;64.58
59873;BME280;50750;51.636;4.948;2023-03-19T13:27:33;101628.23;;;14.88;64.63
59873;BME280;50750;51.636;4.948;2023-03-19T13:33:03;101632.33;;;14.87;64.38
59873;BME280;50750;51.636;4.948;2023-03-19T13:35:39;101633.92;;;14.87;64.55
59873;BME280;50750;51.636;4.948;2023-03-19T13:38:26;101637.61;;;14.87;64.71
59873;BME280;50750;51.636;4.948;2023-03-19T13:40:57;101639.86;;;14.88;64.54
59873;BME280;50750;51.636;4.948;2023-03-19T13:59:31;101642.13;;;14.89;64.65
59873;BME280;50750;51.636;4.948;2023-03-19T14:02:00;101637.20;;;14.88;64.66
59873;BME280;50750;51.636;4.948;2023-03-19T14:04:29;101642.14;;;14.88;64.51
59873;BME280;50750;51.636;4.948;2023-03-19T14:09:40;101639.88;;;14.88;64.62
59873;BME280;50750;51.636;4.948;2023-03-19T14:14:43;101653.09;;;14.88;64.63
59873;BME280;50750;51.636;4.948;2023-03-19T14:17:14;101662.95;;;14.88;64.71
59873;BME280;50750;51.636;4.948;2023-03-19T14:19:42;101666.07;;;14.90;64.55
59873;BME280;50750;51.636;4.948;2023-03-19T14:22:18;101668.67;;;14.91;64.65
59873;BME280;50750;51.636;4.948;2023-03-19T14:25:17;101674.65;;;14.92;64.67
59873;BME280;50750;51.636;4.948;2023-03-19T14:27:47;101676.21;;;14.92;64.61
59873;BME280;50750;51.636;4.948;2023-03-19T14:32:43;101681.81;;;14.94;64.60
59873;BME280;50750;51.636;4.948;2023-03-19T14:35:16;101681.28;;;14.94;64.59
59873;BME280;50750;51.636;4.948;2023-03-19T14:37:50;101681.27;;;14.94;64.64